sensor_id;sensor_type;location;lat;lon;timestamp;pressure;altitude;pressure_sealevel;temperature;humidity
57024;BME280;42916;54.346;18.562;2023-02-02T21:56:51;100739.97;;;-0.87;93.45
57024;BME280;42916;54.346;18.562;2023-02-02T21:59:26;100732.75;;;-0.95;93.32
57024;BME280;42916;54.346;18.562;2023-02-02T22:01:54;100736.46;;;-1.00;93.26
57024;BME280;42916;54.346;18.562;2023-02-02T22:04:25;100738.82;;;-1.04;93.38
57024;BME280;42916;54.346;18.562;2023-02-02T22:07:08;100742.02;;;-1.07;93.47
57024;BME280;42916;54.346;18.562;2023-02-02T22:09:39;100744.38;;;-1.12;93.78
57024;BME280;42916;54.346;18.562;2023-02-02T22:12:16;100744.28;;;-1.18;93.80
57024;BME280;42916;54.346;18.562;2023-02-02T22:14:47;100753.00;;;-1.26;93.90
57024;BME280;42916;54.346;18.562;2023-02-02T22:17:22;100752.13;;;-1.32;94.07
57024;BME280;42916;54.346;18.562;2023-02-02T22:19:52;100749.72;;;-1.40;94.18
57024;BME280;42916;54.346;18.562;2023-02-02T22:22:23;100753.69;;;-1.47;94.41
57024;BME280;42916;54.346;18.562;2023-02-02T22:30:34;100754.90;;;-1.68;95.08
57024;BME280;42916;54.346;18.562;2023-02-02T22:33:06;100749.66;;;-1.74;95.17
57024;BME280;42916;54.346;18.562;2023-02-02T22:35:34;100745.91;;;-1.77;95.30
57024;BME280;42916;54.346;18.562;2023-02-02T22:38:01;100749.02;;;-1.79;95.61
57024;BME280;42916;54.346;18.562;2023-02-02T22:40:28;100748.41;;;-1.82;95.66
57024;BME280;42916;54.346;18.562;2023-02-02T22:42:58;100749.85;;;-1.87;95.97
57024;BME280;42916;54.346;18.562;2023-02-02T22:45:25;100763.13;;;-1.91;96.10
57024;BME280;42916;54.346;18.562;2023-02-02T22:47:52;100762.58;;;-1.95;96.24
57024;BME280;42916;54.346;18.562;2023-02-02T22:50:22;100765.07;;;-2.00;96.47
57024;BME280;42916;54.346;18.562;2023-02-02T22:52:49;100769.72;;;-2.05;96.70
57024;BME280;42916;54.346;18.562;2023-02-02T22:55:17;100775.14;;;-2.09;96.98
57024;BME280;42916;54.346;18.562;2023-02-02T22:57:45;100784.33;;;-2.10;97.01
57024;BME280;42916;54.346;18.562;2023-02-02T23:00:18;100778.70;;;-2.13;97.05
57024;BME280;42916;54.346;18.562;2023-02-02T23:02:45;100780.77;;;-2.15;97.31
57024;BME280;42916;54.346;18.562;2023-02-02T23:05:13;100781.78;;;-2.18;97.79
57024;BME280;42916;54.346;18.562;2023-02-02T23:07:41;100787.88;;;-2.20;98.26
57024;BME280;42916;54.346;18.562;2023-02-02T23:10:14;100790.41;;;-2.22;98.34
57024;BME280;42916;54.346;18.562;2023-02-02T23:12:41;100790.09;;;-2.25;98.39
57024;BME280;42916;54.346;18.562;2023-02-02T23:15:09;100788.09;;;-2.26;98.43
57024;BME280;42916;54.346;18.562;2023-02-02T23:17:36;100784.02;;;-2.26;98.33
57024;BME280;42916;54.346;18.562;2023-02-02T23:20:06;100777.77;;;-2.28;98.79
57024;BME280;42916;54.346;18.562;2023-02-02T23:22:33;100777.23;;;-2.29;98.74
57024;BME280;42916;54.346;18.562;2023-02-02T23:25:00;100775.86;;;-2.31;99.13
57024;BME280;42916;54.346;18.562;2023-02-02T23:27:26;100774.77;;;-2.33;99.39
57024;BME280;42916;54.346;18.562;2023-02-02T23:29:53;100774.84;;;-2.35;99.53
57024;BME280;42916;54.346;18.562;2023-02-02T23:32:20;100777.61;;;-2.39;99.66
57024;BME280;42916;54.346;18.562;2023-02-02T23:34:46;100774.70;;;-2.44;99.86
57024;BME280;42916;54.346;18.562;2023-02-02T23:37:13;100777.12;;;-2.48;99.97
57024;BME280;42916;54.346;18.562;2023-02-02T23:39:40;100777.21;;;-2.51;99.99
57024;BME280;42916;54.346;18.562;2023-02-02T23:42:07;100771.98;;;-2.52;100.00
57024;BME280;42916;54.346;18.562;2023-02-02T23:44:33;100772.29;;;-2.51;100.00
57024;BME280;42916;54.346;18.562;2023-02-02T23:47:01;100767.16;;;-2.52;100.00
57024;BME280;42916;54.346;18.562;2023-02-02T23:49:30;100772.25;;;-2.51;100.00
57024;BME280;42916;54.346;18.562;2023-02-02T23:51:58;100773.95;;;-2.52;100.00
57024;BME280;42916;54.346;18.562;2023-02-02T23:54:25;100781.17;;;-2.56;100.00
57024;BME280;42916;54.346;18.562;2023-02-02T23:56:52;100774.94;;;-2.61;100.00
57024;BME280;42916;54.346;18.562;2023-02-02T23:59:19;100769.59;;;-2.68;100.00
